This is the latest recevied weather packets stored in our database for station/object K4CRS-13. If no packets are shown the sender has not sent any weather packets the latest 10 day(s).
| Time | Temp. | Humidity | Pressure | Rain* | Wind** | Luminosity | Snow |
|---|---|---|---|---|---|---|---|
| 1787696025 | 33.89° C | 47% | 1050.8 hPa | 0 mm | - | 245 W/m² | - |
| 1787695724 | 33.89° C | 48% | 1050.7 hPa | 0 mm | - | 262 W/m² | - |
| 1787695422 | 33.33° C | 48% | 1050.8 hPa | 0 mm | - | 290 W/m² | - |
| 1787695116 | 32.78° C | 50% | 1050.9 hPa | 0 mm | - | 253 W/m² | - |
| 1787694814 | 32.78° C | 50% | 1050.9 hPa | 0 mm | - | 159 W/m² | - |
| 1787694511 | 32.78° C | 51% | 1050.8 hPa | 0 mm | - | 335 W/m² | - |
| 1787694210 | 32.78° C | 51% | 1051 hPa | 0 mm | - | 159 W/m² | - |
| 1787693905 | 32.78° C | 52% | 1051 hPa | 0 mm | - | 369 W/m² | - |
| 1787693602 | 32.78° C | 53% | 1050.8 hPa | 0 mm | - | 354 W/m² | - |
| 1787693298 | 32.78° C | 49% | 1051 hPa | 0 mm | - | 395 W/m² | - |
| 1787692993 | 32.78° C | 49% | 1051.2 hPa | 0 mm | - | 172 W/m² | - |
| 1787692688 | 32.78° C | 53% | 1051 hPa | 0 mm | - | 440 W/m² | - |
| 1787692384 | 33.33° C | 48% | 1051 hPa | 0 mm | - | 449 W/m² | - |
| 1787692078 | 32.78° C | 50% | 1051.2 hPa | 0 mm | - | 294 W/m² | - |
| 1787691777 | 32.78° C | 49% | 1051.1 hPa | 0 mm | - | 471 W/m² | - |
| 1787691476 | 33.33° C | 50% | 1051.1 hPa | 0 mm | - | 496 W/m² | - |
| 1787691175 | 33.33° C | 49% | 1051.2 hPa | 0 mm | - | 511 W/m² | - |
| 1787690871 | 33.33° C | 51% | 1051.2 hPa | 0 mm | - | 542 W/m² | - |
| 1787690565 | 33.33° C | 48% | 1051 hPa | 0 mm | - | 551 W/m² | - |
| 1787690261 | 33.33° C | 50% | 1051.2 hPa | 0 mm | - | 549 W/m² | - |
| 1787689958 | 32.78° C | 52% | 1051.1 hPa | 0 mm | - | 567 W/m² | - |
| 1787689658 | 33.33° C | 49% | 1051.2 hPa | 0 mm | - | 563 W/m² | - |
| 1787689353 | 33.33° C | 51% | 1051.2 hPa | 0 mm | - | 565 W/m² | - |
| 1787689052 | 33.89° C | 48% | 1051.3 hPa | 0 mm | - | 603 W/m² | - |
| 1787688749 | 32.78° C | 49% | 1051.3 hPa | 0 mm | - | 589 W/m² | - |
* Rain latest hour (hover to see other rain measurements)
** Current wind speed in m/s (hover to see current wind gust speed)